Aérodrome :







RETROUVEZ-NOUS SUR...

 
LOGIN :

S'inscrire | Disclaimer

   EN    FR    IT 

 









Légende :    VFR   VFR Marginal   IFR   IFR Intensif   IFR Très Intensif
Visi : 
Plafond : 
>= 8 km
>= 3000ft
5 à 8 km
1000 à 3000 ft
1500m à 5 km
500 à 1000 ft
800 à 1500m
200 à 500 ft
< 800m
< 200 ft
Symboles :   Orages  Brouillard  Fortes neiges  Fortes précipitations  Vent > 20 kt






- Altitude de l'aérodrome : 496 ft
- Code IATA : YQX


CYQX - Gander

DERNIER METAR :
  • 150200Z 13012KT 3/4SM R13/P6000FT/D R03/P6000FT/N -SN DRSN OVC004 M02/M03 A3023 RMK SN6SF2 /S01/ PRESFR SLP246

METARs EXPIRÉS :
  • 150154Z 13013KT 3/4SM R13/P6000FT/U R03/P6000FT/D -SN DRSN OVC004 M02/M03 A3023 RMK SN6SF2 PRESFR SLP249
  • 150123Z 14013KT 1SM R13/P6000FT/D R03/P6000FT/D -SN DRSN OVC006 M02/M03 A3026 RMK SN5SF3 SLP258
  • 150100Z 14013KT 1 3/4SM -SN DRSN BKN008 OVC025 M02/M03 A3028 RMK SN3SF3SC2 PRESFR SLP264
  • 150038Z 15011KT 2 1/2SM -SN DRSN SCT009 OVC025 M02/M03 A3030 RMK SN1SF2SC5 SLP272
  • 150022Z 16012KT 2 1/2SM -SN BKN009 OVC026 M02/M03 A3031 RMK SN2SF5SC1 PRESFR SLP275
  • 150000Z 17013KT 10SM -SN FEW014 OVC080 M01/M04 A3033 RMK SC2AS6 SLP282
  • 142300Z 15009KT 20SM OVC120 M02/M05 A3037 RMK AS8 SLP295

TAF AMD TAF CYQX
Valide du 15 à 00h jusqu'au 16 à 00h UTC


150040Z 1500/1524 16012G22KT 21/2SM -SN SCT008 OVC025
TEMPO 1500/1503 3/4SM -SN VV008
FM150300 13017G27KT 3/4SM -SN VV008
PROB30 1503/1505 2SM -SNPL -FZRA BR OVC010
FM150500 13020G30KT 6SM -FZRA BR OVC006
FM150700 14025G35KT 4SM RA BR OVC006
FM151300 17020G30KT P6SM -RA OVC010
BECMG 1513/1515 19020G30KT RMK NXT FCST BY 150600Z



MET'MAP, la Météo Aéronautique d'un coup d'oeil ! - Copyright ORBIFLY Décembre 2007 - Disclaimer

ORBIFLY MET'MAP TEAM :

Programmation & Développement : Alexandra Zaïnal
Sur une idée originale de : Baudouin d'Aumeries
Assistance à la programmation : Marc-Olivier Méhu
Soutien technique & logistique : Manuel Goepfert

Contact : metmap@orbifly.com




SOURCES & CREDITS :

   NOAA